sensor_id;sensor_type;location;lat;lon;timestamp;P1;durP1;ratioP1;P2;durP2;ratioP2
79330;SDS011;68797;49.782;19.054;2023-07-09T00:02:41;8.85;;;5.80;;
79330;SDS011;68797;49.782;19.054;2023-07-09T00:05:14;10.38;;;6.35;;
79330;SDS011;68797;49.782;19.054;2023-07-09T00:07:50;8.75;;;5.18;;
79330;SDS011;68797;49.782;19.054;2023-07-09T00:10:24;11.52;;;5.63;;
79330;SDS011;68797;49.782;19.054;2023-07-09T00:13:20;11.85;;;5.78;;
79330;SDS011;68797;49.782;19.054;2023-07-09T00:15:55;9.30;;;6.30;;
79330;SDS011;68797;49.782;19.054;2023-07-09T00:18:28;9.95;;;6.43;;
79330;SDS011;68797;49.782;19.054;2023-07-09T00:21:27;11.85;;;7.20;;
79330;SDS011;68797;49.782;19.054;2023-07-09T00:24:03;9.55;;;6.35;;
79330;SDS011;68797;49.782;19.054;2023-07-09T00:29:10;11.60;;;6.55;;
79330;SDS011;68797;49.782;19.054;2023-07-09T00:31:45;9.13;;;6.60;;
79330;SDS011;68797;49.782;19.054;2023-07-09T00:34:17;13.95;;;7.00;;
79330;SDS011;68797;49.782;19.054;2023-07-09T00:36:51;10.30;;;6.72;;
79330;SDS011;68797;49.782;19.054;2023-07-09T00:39:20;11.63;;;7.55;;
79330;SDS011;68797;49.782;19.054;2023-07-09T00:42:13;11.65;;;7.25;;
79330;SDS011;68797;49.782;19.054;2023-07-09T00:44:52;13.27;;;6.82;;
79330;SDS011;68797;49.782;19.054;2023-07-09T00:47:39;10.32;;;6.95;;
79330;SDS011;68797;49.782;19.054;2023-07-09T00:50:52;10.57;;;6.38;;
79330;SDS011;68797;49.782;19.054;2023-07-09T00:53:32;11.40;;;7.07;;
79330;SDS011;68797;49.782;19.054;2023-07-09T00:56:05;11.38;;;7.35;;
79330;SDS011;68797;49.782;19.054;2023-07-09T00:58:39;11.30;;;7.75;;
79330;SDS011;68797;49.782;19.054;2023-07-09T01:01:34;10.63;;;7.25;;
79330;SDS011;68797;49.782;19.054;2023-07-09T01:04:12;8.63;;;6.95;;
79330;SDS011;68797;49.782;19.054;2023-07-09T01:07:08;13.13;;;7.85;;
79330;SDS011;68797;49.782;19.054;2023-07-09T01:09:38;12.60;;;8.15;;
79330;SDS011;68797;49.782;19.054;2023-07-09T01:12:13;11.15;;;7.55;;
79330;SDS011;68797;49.782;19.054;2023-07-09T01:14:51;11.45;;;7.97;;
79330;SDS011;68797;49.782;19.054;2023-07-09T01:17:32;10.48;;;7.22;;
79330;SDS011;68797;49.782;19.054;2023-07-09T01:20:13;13.23;;;8.15;;
79330;SDS011;68797;49.782;19.054;2023-07-09T01:22:52;11.73;;;7.13;;
79330;SDS011;68797;49.782;19.054;2023-07-09T01:25:28;12.63;;;6.85;;
79330;SDS011;68797;49.782;19.054;2023-07-09T01:27:58;9.73;;;6.60;;
79330;SDS011;68797;49.782;19.054;2023-07-09T01:30:37;10.85;;;7.00;;
79330;SDS011;68797;49.782;19.054;2023-07-09T01:33:11;9.80;;;6.95;;
79330;SDS011;68797;49.782;19.054;2023-07-09T01:35:39;11.93;;;7.28;;
79330;SDS011;68797;49.782;19.054;2023-07-09T01:38:14;11.63;;;7.38;;
79330;SDS011;68797;49.782;19.054;2023-07-09T01:40:53;10.50;;;7.15;;
79330;SDS011;68797;49.782;19.054;2023-07-09T01:43:22;10.93;;;7.43;;
79330;SDS011;68797;49.782;19.054;2023-07-09T01:46:04;14.15;;;8.90;;
79330;SDS011;68797;49.782;19.054;2023-07-09T01:48:40;12.13;;;8.38;;
79330;SDS011;68797;49.782;19.054;2023-07-09T01:51:13;15.27;;;8.52;;
79330;SDS011;68797;49.782;19.054;2023-07-09T01:56:30;14.95;;;8.13;;
79330;SDS011;68797;49.782;19.054;2023-07-09T01:59:14;14.55;;;8.10;;
79330;SDS011;68797;49.782;19.054;2023-07-09T02:01:50;10.65;;;6.55;;
79330;SDS011;68797;49.782;19.054;2023-07-09T02:04:26;11.18;;;6.07;;
79330;SDS011;68797;49.782;19.054;2023-07-09T02:07:01;9.55;;;6.28;;
79330;SDS011;68797;49.782;19.054;2023-07-09T02:09:35;10.07;;;4.90;;
79330;SDS011;68797;49.782;19.054;2023-07-09T02:12:04;7.82;;;5.03;;
79330;SDS011;68797;49.782;19.054;2023-07-09T02:14:39;7.50;;;4.68;;
79330;SDS011;68797;49.782;19.054;2023-07-09T02:17:14;7.88;;;4.95;;
79330;SDS011;68797;49.782;19.054;2023-07-09T02:22:37;9.00;;;5.22;;
79330;SDS011;68797;49.782;19.054;2023-07-09T02:25:09;9.27;;;5.10;;
79330;SDS011;68797;49.782;19.054;2023-07-09T02:27:54;7.38;;;4.50;;
79330;SDS011;68797;49.782;19.054;2023-07-09T02:30:38;6.68;;;4.32;;
79330;SDS011;68797;49.782;19.054;2023-07-09T02:33:10;7.28;;;4.88;;
79330;SDS011;68797;49.782;19.054;2023-07-09T02:35:49;7.15;;;5.00;;
79330;SDS011;68797;49.782;19.054;2023-07-09T02:38:17;7.82;;;5.40;;
79330;SDS011;68797;49.782;19.054;2023-07-09T02:40:47;6.80;;;4.93;;
79330;SDS011;68797;49.782;19.054;2023-07-09T02:43:20;7.03;;;4.43;;
79330;SDS011;68797;49.782;19.054;2023-07-09T02:45:49;8.38;;;5.28;;
79330;SDS011;68797;49.782;19.054;2023-07-09T02:48:22;6.53;;;4.80;;
79330;SDS011;68797;49.782;19.054;2023-07-09T02:50:50;7.22;;;4.85;;
79330;SDS011;68797;49.782;19.054;2023-07-09T02:53:25;6.70;;;5.03;;
79330;SDS011;68797;49.782;19.054;2023-07-09T02:56:04;6.50;;;4.68;;
79330;SDS011;68797;49.782;19.054;2023-07-09T02:58:39;6.03;;;4.78;;
79330;SDS011;68797;49.782;19.054;2023-07-09T03:01:14;9.90;;;5.32;;
79330;SDS011;68797;49.782;19.054;2023-07-09T03:03:46;7.88;;;4.95;;
79330;SDS011;68797;49.782;19.054;2023-07-09T03:06:22;7.85;;;5.30;;
79330;SDS011;68797;49.782;19.054;2023-07-09T03:09:05;9.57;;;5.57;;
79330;SDS011;68797;49.782;19.054;2023-07-09T03:11:37;8.15;;;5.25;;
79330;SDS011;68797;49.782;19.054;2023-07-09T03:14:09;6.00;;;4.45;;
79330;SDS011;68797;49.782;19.054;2023-07-09T03:16:39;7.82;;;5.03;;
79330;SDS011;68797;49.782;19.054;2023-07-09T03:19:14;7.13;;;4.75;;
79330;SDS011;68797;49.782;19.054;2023-07-09T03:21:47;7.10;;;5.28;;
79330;SDS011;68797;49.782;19.054;2023-07-09T03:24:20;7.95;;;5.55;;
79330;SDS011;68797;49.782;19.054;2023-07-09T03:26:53;7.25;;;5.20;;
79330;SDS011;68797;49.782;19.054;2023-07-09T03:29:36;7.60;;;5.72;;
79330;SDS011;68797;49.782;19.054;2023-07-09T03:32:03;8.40;;;5.70;;
79330;SDS011;68797;49.782;19.054;2023-07-09T03:34:31;9.90;;;6.45;;
79330;SDS011;68797;49.782;19.054;2023-07-09T03:37:12;8.57;;;5.78;;
79330;SDS011;68797;49.782;19.054;2023-07-09T03:40:19;6.57;;;5.35;;
79330;SDS011;68797;49.782;19.054;2023-07-09T03:42:49;10.55;;;6.40;;
79330;SDS011;68797;49.782;19.054;2023-07-09T03:45:25;10.15;;;5.65;;
79330;SDS011;68797;49.782;19.054;2023-07-09T03:48:18;7.88;;;4.97;;
79330;SDS011;68797;49.782;19.054;2023-07-09T03:50:46;9.45;;;5.97;;
79330;SDS011;68797;49.782;19.054;2023-07-09T03:53:16;7.15;;;5.25;;
79330;SDS011;68797;49.782;19.054;2023-07-09T03:55:56;9.45;;;5.65;;
79330;SDS011;68797;49.782;19.054;2023-07-09T03:58:28;9.48;;;5.93;;
79330;SDS011;68797;49.782;19.054;2023-07-09T04:01:10;9.93;;;6.07;;
79330;SDS011;68797;49.782;19.054;2023-07-09T04:03:38;10.45;;;6.38;;
79330;SDS011;68797;49.782;19.054;2023-07-09T04:06:11;8.77;;;5.93;;
79330;SDS011;68797;49.782;19.054;2023-07-09T04:08:43;8.23;;;5.60;;
79330;SDS011;68797;49.782;19.054;2023-07-09T04:11:17;9.80;;;5.53;;
79330;SDS011;68797;49.782;19.054;2023-07-09T04:13:49;7.95;;;5.95;;
79330;SDS011;68797;49.782;19.054;2023-07-09T04:16:33;7.70;;;5.88;;
79330;SDS011;68797;49.782;19.054;2023-07-09T04:19:07;7.80;;;5.95;;
79330;SDS011;68797;49.782;19.054;2023-07-09T04:21:42;9.75;;;6.13;;
79330;SDS011;68797;49.782;19.054;2023-07-09T04:24:18;8.02;;;5.50;;
79330;SDS011;68797;49.782;19.054;2023-07-09T04:26:55;9.48;;;5.55;;
79330;SDS011;68797;49.782;19.054;2023-07-09T04:29:25;9.10;;;5.82;;
79330;SDS011;68797;49.782;19.054;2023-07-09T04:31:55;7.15;;;5.30;;
79330;SDS011;68797;49.782;19.054;2023-07-09T04:34:27;10.20;;;5.55;;
79330;SDS011;68797;49.782;19.054;2023-07-09T04:36:58;7.45;;;5.43;;
79330;SDS011;68797;49.782;19.054;2023-07-09T04:39:28;8.23;;;5.05;;
79330;SDS011;68797;49.782;19.054;2023-07-09T04:42:13;6.93;;;4.60;;
79330;SDS011;68797;49.782;19.054;2023-07-09T04:47:29;6.47;;;4.53;;
79330;SDS011;68797;49.782;19.054;2023-07-09T04:50:01;7.15;;;4.63;;
79330;SDS011;68797;49.782;19.054;2023-07-09T04:52:38;9.75;;;5.70;;
79330;SDS011;68797;49.782;19.054;2023-07-09T04:55:10;7.18;;;4.97;;
79330;SDS011;68797;49.782;19.054;2023-07-09T04:57:42;6.32;;;4.80;;
79330;SDS011;68797;49.782;19.054;2023-07-09T05:00:09;6.60;;;5.13;;
79330;SDS011;68797;49.782;19.054;2023-07-09T05:02:45;6.63;;;4.88;;
79330;SDS011;68797;49.782;19.054;2023-07-09T05:05:14;6.95;;;4.63;;
79330;SDS011;68797;49.782;19.054;2023-07-09T05:07:44;6.55;;;4.63;;
79330;SDS011;68797;49.782;19.054;2023-07-09T05:10:19;8.25;;;4.53;;
79330;SDS011;68797;49.782;19.054;2023-07-09T05:13:18;6.30;;;4.63;;
79330;SDS011;68797;49.782;19.054;2023-07-09T05:15:46;6.80;;;4.85;;
79330;SDS011;68797;49.782;19.054;2023-07-09T05:18:25;7.30;;;4.40;;
79330;SDS011;68797;49.782;19.054;2023-07-09T05:21:01;6.25;;;5.18;;
79330;SDS011;68797;49.782;19.054;2023-07-09T05:23:36;8.55;;;5.22;;
79330;SDS011;68797;49.782;19.054;2023-07-09T05:26:28;8.13;;;5.63;;
79330;SDS011;68797;49.782;19.054;2023-07-09T05:29:04;7.70;;;5.60;;
79330;SDS011;68797;49.782;19.054;2023-07-09T05:32:07;8.25;;;6.18;;
79330;SDS011;68797;49.782;19.054;2023-07-09T05:34:45;7.88;;;6.15;;
79330;SDS011;68797;49.782;19.054;2023-07-09T05:37:22;7.95;;;5.70;;
79330;SDS011;68797;49.782;19.054;2023-07-09T05:40:06;10.40;;;6.28;;
79330;SDS011;68797;49.782;19.054;2023-07-09T05:42:49;9.40;;;5.82;;
79330;SDS011;68797;49.782;19.054;2023-07-09T05:45:23;7.85;;;5.75;;
79330;SDS011;68797;49.782;19.054;2023-07-09T05:47:56;6.95;;;5.13;;
79330;SDS011;68797;49.782;19.054;2023-07-09T05:50:28;7.78;;;5.68;;
79330;SDS011;68797;49.782;19.054;2023-07-09T05:53:08;8.50;;;6.25;;
79330;SDS011;68797;49.782;19.054;2023-07-09T05:55:45;7.25;;;5.07;;
79330;SDS011;68797;49.782;19.054;2023-07-09T05:58:28;7.47;;;5.38;;
79330;SDS011;68797;49.782;19.054;2023-07-09T06:01:04;6.28;;;5.32;;
79330;SDS011;68797;49.782;19.054;2023-07-09T06:03:35;8.63;;;6.15;;
79330;SDS011;68797;49.782;19.054;2023-07-09T06:06:11;7.18;;;4.95;;
79330;SDS011;68797;49.782;19.054;2023-07-09T06:08:46;7.00;;;5.22;;
79330;SDS011;68797;49.782;19.054;2023-07-09T06:11:19;6.60;;;5.00;;
79330;SDS011;68797;49.782;19.054;2023-07-09T06:13:53;7.80;;;4.63;;
79330;SDS011;68797;49.782;19.054;2023-07-09T06:16:31;6.25;;;4.63;;
79330;SDS011;68797;49.782;19.054;2023-07-09T06:19:01;8.88;;;5.32;;
79330;SDS011;68797;49.782;19.054;2023-07-09T06:21:35;10.57;;;5.53;;
79330;SDS011;68797;49.782;19.054;2023-07-09T06:24:15;8.30;;;5.25;;
79330;SDS011;68797;49.782;19.054;2023-07-09T06:26:49;6.47;;;5.18;;
79330;SDS011;68797;49.782;19.054;2023-07-09T06:29:45;9.40;;;4.95;;
79330;SDS011;68797;49.782;19.054;2023-07-09T06:32:19;6.70;;;4.68;;
79330;SDS011;68797;49.782;19.054;2023-07-09T06:34:52;8.85;;;4.72;;
79330;SDS011;68797;49.782;19.054;2023-07-09T06:37:26;7.40;;;4.70;;
79330;SDS011;68797;49.782;19.054;2023-07-09T06:40:07;6.35;;;5.03;;
79330;SDS011;68797;49.782;19.054;2023-07-09T06:42:49;7.70;;;4.70;;
79330;SDS011;68797;49.782;19.054;2023-07-09T06:46:04;6.47;;;4.78;;
79330;SDS011;68797;49.782;19.054;2023-07-09T06:48:44;6.43;;;4.55;;
79330;SDS011;68797;49.782;19.054;2023-07-09T06:51:34;8.60;;;5.10;;
79330;SDS011;68797;49.782;19.054;2023-07-09T06:54:22;8.70;;;5.05;;
79330;SDS011;68797;49.782;19.054;2023-07-09T06:57:08;6.72;;;4.68;;
79330;SDS011;68797;49.782;19.054;2023-07-09T06:59:39;7.20;;;5.10;;
79330;SDS011;68797;49.782;19.054;2023-07-09T07:02:44;6.95;;;5.18;;
79330;SDS011;68797;49.782;19.054;2023-07-09T07:05:19;6.97;;;4.80;;
79330;SDS011;68797;49.782;19.054;2023-07-09T07:07:59;7.28;;;4.72;;
79330;SDS011;68797;49.782;19.054;2023-07-09T07:10:35;5.85;;;4.93;;
79330;SDS011;68797;49.782;19.054;2023-07-09T07:13:08;7.03;;;4.78;;
79330;SDS011;68797;49.782;19.054;2023-07-09T07:16:02;6.40;;;4.95;;
79330;SDS011;68797;49.782;19.054;2023-07-09T07:18:56;8.05;;;5.13;;
79330;SDS011;68797;49.782;19.054;2023-07-09T07:21:30;6.07;;;5.15;;
79330;SDS011;68797;49.782;19.054;2023-07-09T07:24:02;6.65;;;4.72;;
79330;SDS011;68797;49.782;19.054;2023-07-09T07:29:48;6.50;;;4.63;;
79330;SDS011;68797;49.782;19.054;2023-07-09T07:32:27;4.55;;;4.10;;
79330;SDS011;68797;49.782;19.054;2023-07-09T07:35:22;5.10;;;4.32;;
79330;SDS011;68797;49.782;19.054;2023-07-09T07:38:05;4.97;;;4.30;;
79330;SDS011;68797;49.782;19.054;2023-07-09T07:40:37;5.35;;;4.00;;
79330;SDS011;68797;49.782;19.054;2023-07-09T07:43:08;6.05;;;3.88;;
79330;SDS011;68797;49.782;19.054;2023-07-09T07:45:42;5.15;;;3.33;;
79330;SDS011;68797;49.782;19.054;2023-07-09T07:51:05;5.63;;;4.10;;
79330;SDS011;68797;49.782;19.054;2023-07-09T07:54:12;5.25;;;4.30;;
79330;SDS011;68797;49.782;19.054;2023-07-09T07:56:55;6.57;;;3.67;;
79330;SDS011;68797;49.782;19.054;2023-07-09T07:59:40;9.20;;;4.03;;
79330;SDS011;68797;49.782;19.054;2023-07-09T08:02:20;5.78;;;4.03;;
79330;SDS011;68797;49.782;19.054;2023-07-09T08:04:53;6.63;;;3.72;;
79330;SDS011;68797;49.782;19.054;2023-07-09T08:07:35;4.88;;;3.20;;
79330;SDS011;68797;49.782;19.054;2023-07-09T08:10:06;3.85;;;3.10;;
79330;SDS011;68797;49.782;19.054;2023-07-09T08:12:38;4.82;;;3.58;;
79330;SDS011;68797;49.782;19.054;2023-07-09T08:15:14;3.97;;;3.40;;
79330;SDS011;68797;49.782;19.054;2023-07-09T08:17:53;5.90;;;3.60;;
79330;SDS011;68797;49.782;19.054;2023-07-09T08:20:36;4.57;;;3.13;;
79330;SDS011;68797;49.782;19.054;2023-07-09T08:26:09;4.85;;;3.38;;
79330;SDS011;68797;49.782;19.054;2023-07-09T08:28:48;4.57;;;3.40;;
79330;SDS011;68797;49.782;19.054;2023-07-09T08:31:20;4.35;;;3.08;;
79330;SDS011;68797;49.782;19.054;2023-07-09T08:33:51;4.10;;;3.10;;
79330;SDS011;68797;49.782;19.054;2023-07-09T08:36:24;4.88;;;3.33;;
79330;SDS011;68797;49.782;19.054;2023-07-09T08:39:03;3.85;;;3.42;;
79330;SDS011;68797;49.782;19.054;2023-07-09T08:50:37;4.88;;;3.30;;
79330;SDS011;68797;49.782;19.054;2023-07-09T08:53:43;4.70;;;3.25;;
79330;SDS011;68797;49.782;19.054;2023-07-09T08:56:35;4.10;;;3.10;;
79330;SDS011;68797;49.782;19.054;2023-07-09T08:59:07;5.22;;;3.53;;
79330;SDS011;68797;49.782;19.054;2023-07-09T09:01:57;4.35;;;3.20;;
79330;SDS011;68797;49.782;19.054;2023-07-09T09:04:52;4.20;;;3.60;;
79330;SDS011;68797;49.782;19.054;2023-07-09T09:10:16;5.38;;;3.67;;
79330;SDS011;68797;49.782;19.054;2023-07-09T09:13:27;4.28;;;3.03;;
79330;SDS011;68797;49.782;19.054;2023-07-09T09:16:06;6.28;;;3.60;;
79330;SDS011;68797;49.782;19.054;2023-07-09T09:22:04;3.53;;;3.00;;
79330;SDS011;68797;49.782;19.054;2023-07-09T09:27:32;4.60;;;3.72;;
79330;SDS011;68797;49.782;19.054;2023-07-09T09:30:15;5.63;;;3.53;;
79330;SDS011;68797;49.782;19.054;2023-07-09T09:35:43;4.68;;;3.70;;
79330;SDS011;68797;49.782;19.054;2023-07-09T09:38:21;3.67;;;3.15;;
79330;SDS011;68797;49.782;19.054;2023-07-09T09:40:59;6.82;;;3.85;;
79330;SDS011;68797;49.782;19.054;2023-07-09T09:43:41;4.35;;;3.65;;
79330;SDS011;68797;49.782;19.054;2023-07-09T09:46:23;5.32;;;3.90;;
79330;SDS011;68797;49.782;19.054;2023-07-09T09:49:08;5.10;;;3.72;;
79330;SDS011;68797;49.782;19.054;2023-07-09T09:51:54;3.85;;;3.45;;
79330;SDS011;68797;49.782;19.054;2023-07-09T09:54:33;4.82;;;3.90;;
79330;SDS011;68797;49.782;19.054;2023-07-09T09:57:29;5.72;;;3.97;;
79330;SDS011;68797;49.782;19.054;2023-07-09T10:00:23;4.15;;;3.50;;
79330;SDS011;68797;49.782;19.054;2023-07-09T10:12:08;6.88;;;3.88;;
79330;SDS011;68797;49.782;19.054;2023-07-09T10:26:36;4.85;;;3.95;;
79330;SDS011;68797;49.782;19.054;2023-07-09T10:41:01;5.72;;;3.65;;
79330;SDS011;68797;49.782;19.054;2023-07-09T10:44:06;4.80;;;3.92;;
79330;SDS011;68797;49.782;19.054;2023-07-09T10:46:45;5.35;;;4.25;;
79330;SDS011;68797;49.782;19.054;2023-07-09T10:49:25;5.60;;;3.83;;
79330;SDS011;68797;49.782;19.054;2023-07-09T10:52:25;6.78;;;4.70;;
79330;SDS011;68797;49.782;19.054;2023-07-09T10:55:22;4.80;;;3.90;;
79330;SDS011;68797;49.782;19.054;2023-07-09T10:58:34;5.07;;;3.80;;
79330;SDS011;68797;49.782;19.054;2023-07-09T11:10:24;5.50;;;4.05;;
79330;SDS011;68797;49.782;19.054;2023-07-09T11:13:14;5.18;;;4.30;;
79330;SDS011;68797;49.782;19.054;2023-07-09T11:15:59;6.10;;;3.63;;
79330;SDS011;68797;49.782;19.054;2023-07-09T11:18:40;5.93;;;4.43;;
79330;SDS011;68797;49.782;19.054;2023-07-09T11:21:13;4.53;;;3.47;;
79330;SDS011;68797;49.782;19.054;2023-07-09T11:23:56;4.63;;;4.13;;
79330;SDS011;68797;49.782;19.054;2023-07-09T11:26:35;5.22;;;4.00;;
79330;SDS011;68797;49.782;19.054;2023-07-09T11:32:08;5.57;;;3.90;;
79330;SDS011;68797;49.782;19.054;2023-07-09T11:34:44;6.03;;;4.22;;
79330;SDS011;68797;49.782;19.054;2023-07-09T11:37:43;5.68;;;3.90;;
79330;SDS011;68797;49.782;19.054;2023-07-09T11:40:30;5.57;;;4.20;;
79330;SDS011;68797;49.782;19.054;2023-07-09T11:43:35;5.80;;;4.57;;
79330;SDS011;68797;49.782;19.054;2023-07-09T11:46:25;5.25;;;3.92;;
79330;SDS011;68797;49.782;19.054;2023-07-09T11:48:57;6.00;;;4.70;;
79330;SDS011;68797;49.782;19.054;2023-07-09T11:51:36;4.90;;;3.55;;
79330;SDS011;68797;49.782;19.054;2023-07-09T11:54:42;4.40;;;3.38;;
79330;SDS011;68797;49.782;19.054;2023-07-09T11:57:37;7.60;;;4.60;;
79330;SDS011;68797;49.782;19.054;2023-07-09T12:00:28;5.80;;;4.20;;
79330;SDS011;68797;49.782;19.054;2023-07-09T12:03:35;6.60;;;4.00;;
79330;SDS011;68797;49.782;19.054;2023-07-09T12:06:32;5.85;;;4.15;;
79330;SDS011;68797;49.782;19.054;2023-07-09T12:09:30;8.63;;;4.25;;
79330;SDS011;68797;49.782;19.054;2023-07-09T12:12:35;5.75;;;4.55;;
79330;SDS011;68797;49.782;19.054;2023-07-09T12:15:21;6.70;;;4.43;;
79330;SDS011;68797;49.782;19.054;2023-07-09T12:18:03;5.68;;;4.22;;
79330;SDS011;68797;49.782;19.054;2023-07-09T12:20:41;4.80;;;4.03;;
79330;SDS011;68797;49.782;19.054;2023-07-09T12:23:29;4.97;;;4.13;;
79330;SDS011;68797;49.782;19.054;2023-07-09T12:25:59;5.68;;;3.88;;
79330;SDS011;68797;49.782;19.054;2023-07-09T12:28:28;5.03;;;4.10;;
79330;SDS011;68797;49.782;19.054;2023-07-09T12:31:00;4.47;;;4.03;;
79330;SDS011;68797;49.782;19.054;2023-07-09T12:33:30;4.72;;;3.92;;
79330;SDS011;68797;49.782;19.054;2023-07-09T12:37:15;6.70;;;4.57;;
79330;SDS011;68797;49.782;19.054;2023-07-09T12:40:37;5.65;;;4.30;;
79330;SDS011;68797;49.782;19.054;2023-07-09T12:44:21;6.78;;;4.05;;
79330;SDS011;68797;49.782;19.054;2023-07-09T12:47:58;7.45;;;4.13;;
79330;SDS011;68797;49.782;19.054;2023-07-09T12:51:08;6.30;;;4.65;;
79330;SDS011;68797;49.782;19.054;2023-07-09T12:54:51;4.80;;;4.15;;
79330;SDS011;68797;49.782;19.054;2023-07-09T12:57:27;6.47;;;4.65;;
79330;SDS011;68797;49.782;19.054;2023-07-09T13:04:30;6.18;;;4.80;;
79330;SDS011;68797;49.782;19.054;2023-07-09T13:07:39;7.32;;;4.88;;
79330;SDS011;68797;49.782;19.054;2023-07-09T13:11:26;5.30;;;4.38;;
79330;SDS011;68797;49.782;19.054;2023-07-09T13:22:13;6.47;;;4.60;;
79330;SDS011;68797;49.782;19.054;2023-07-09T13:29:19;5.50;;;4.68;;
79330;SDS011;68797;49.782;19.054;2023-07-09T13:31:53;6.03;;;4.70;;
79330;SDS011;68797;49.782;19.054;2023-07-09T13:34:59;7.68;;;5.20;;
79330;SDS011;68797;49.782;19.054;2023-07-09T13:40:39;7.18;;;4.40;;
79330;SDS011;68797;49.782;19.054;2023-07-09T13:43:30;9.05;;;5.13;;
79330;SDS011;68797;49.782;19.054;2023-07-09T13:46:07;7.55;;;4.38;;
79330;SDS011;68797;49.782;19.054;2023-07-09T13:49:19;5.90;;;4.20;;
79330;SDS011;68797;49.782;19.054;2023-07-09T13:52:32;8.13;;;4.30;;
79330;SDS011;68797;49.782;19.054;2023-07-09T13:58:45;5.50;;;3.97;;
79330;SDS011;68797;49.782;19.054;2023-07-09T14:02:13;6.10;;;4.45;;
79330;SDS011;68797;49.782;19.054;2023-07-09T14:06:13;5.53;;;4.50;;
79330;SDS011;68797;49.782;19.054;2023-07-09T14:10:12;5.18;;;4.03;;
79330;SDS011;68797;49.782;19.054;2023-07-09T14:17:13;5.35;;;4.20;;
79330;SDS011;68797;49.782;19.054;2023-07-09T14:24:55;6.97;;;4.50;;
79330;SDS011;68797;49.782;19.054;2023-07-09T14:36:13;6.60;;;4.75;;
79330;SDS011;68797;49.782;19.054;2023-07-09T14:39:42;7.53;;;4.82;;
79330;SDS011;68797;49.782;19.054;2023-07-09T14:43:41;6.00;;;4.30;;
79330;SDS011;68797;49.782;19.054;2023-07-09T14:46:49;5.22;;;3.88;;
79330;SDS011;68797;49.782;19.054;2023-07-09T14:56:54;5.53;;;4.70;;
79330;SDS011;68797;49.782;19.054;2023-07-09T15:03:46;6.63;;;5.05;;
79330;SDS011;68797;49.782;19.054;2023-07-09T15:06:59;7.38;;;4.40;;
79330;SDS011;68797;49.782;19.054;2023-07-09T15:09:50;6.50;;;4.22;;
79330;SDS011;68797;49.782;19.054;2023-07-09T15:12:53;6.20;;;4.63;;
79330;SDS011;68797;49.782;19.054;2023-07-09T15:16:56;12.40;;;4.82;;
79330;SDS011;68797;49.782;19.054;2023-07-09T15:20:54;6.22;;;4.88;;
79330;SDS011;68797;49.782;19.054;2023-07-09T15:24:32;9.73;;;4.60;;
79330;SDS011;68797;49.782;19.054;2023-07-09T15:28:07;5.75;;;4.47;;
79330;SDS011;68797;49.782;19.054;2023-07-09T15:31:37;6.30;;;4.40;;
79330;SDS011;68797;49.782;19.054;2023-07-09T15:42:41;6.43;;;4.63;;
79330;SDS011;68797;49.782;19.054;2023-07-09T15:45:40;6.22;;;3.92;;
79330;SDS011;68797;49.782;19.054;2023-07-09T15:48:44;7.18;;;4.55;;
79330;SDS011;68797;49.782;19.054;2023-07-09T15:51:54;7.07;;;4.97;;
79330;SDS011;68797;49.782;19.054;2023-07-09T15:54:49;10.68;;;5.00;;
79330;SDS011;68797;49.782;19.054;2023-07-09T15:58:01;7.18;;;5.20;;
79330;SDS011;68797;49.782;19.054;2023-07-09T16:08:26;6.28;;;4.47;;
79330;SDS011;68797;49.782;19.054;2023-07-09T16:11:08;7.18;;;4.60;;
79330;SDS011;68797;49.782;19.054;2023-07-09T16:17:12;7.32;;;4.75;;
79330;SDS011;68797;49.782;19.054;2023-07-09T16:19:57;5.82;;;4.50;;
79330;SDS011;68797;49.782;19.054;2023-07-09T16:22:42;7.15;;;4.68;;
79330;SDS011;68797;49.782;19.054;2023-07-09T16:25:33;5.78;;;4.63;;
79330;SDS011;68797;49.782;19.054;2023-07-09T16:28:10;5.45;;;4.55;;
79330;SDS011;68797;49.782;19.054;2023-07-09T16:31:10;8.55;;;5.25;;
79330;SDS011;68797;49.782;19.054;2023-07-09T16:34:04;6.38;;;4.63;;
79330;SDS011;68797;49.782;19.054;2023-07-09T16:37:48;6.32;;;4.82;;
79330;SDS011;68797;49.782;19.054;2023-07-09T16:40:28;6.70;;;4.70;;
79330;SDS011;68797;49.782;19.054;2023-07-09T16:43:21;6.50;;;4.75;;
79330;SDS011;68797;49.782;19.054;2023-07-09T16:46:20;6.57;;;5.05;;
79330;SDS011;68797;49.782;19.054;2023-07-09T16:56:48;6.53;;;4.45;;
79330;SDS011;68797;49.782;19.054;2023-07-09T17:03:44;6.60;;;4.50;;
79330;SDS011;68797;49.782;19.054;2023-07-09T17:06:47;9.55;;;4.22;;
79330;SDS011;68797;49.782;19.054;2023-07-09T17:10:01;6.55;;;4.35;;
79330;SDS011;68797;49.782;19.054;2023-07-09T17:13:30;8.27;;;4.65;;
79330;SDS011;68797;49.782;19.054;2023-07-09T17:16:38;6.07;;;4.68;;
79330;SDS011;68797;49.782;19.054;2023-07-09T17:20:12;9.05;;;5.00;;
79330;SDS011;68797;49.782;19.054;2023-07-09T17:27:32;9.73;;;5.45;;
79330;SDS011;68797;49.782;19.054;2023-07-09T17:30:13;7.10;;;4.82;;
79330;SDS011;68797;49.782;19.054;2023-07-09T17:32:49;5.35;;;4.68;;
79330;SDS011;68797;49.782;19.054;2023-07-09T17:35:30;6.10;;;4.60;;
79330;SDS011;68797;49.782;19.054;2023-07-09T17:38:04;5.93;;;4.47;;
79330;SDS011;68797;49.782;19.054;2023-07-09T17:40:46;7.32;;;4.63;;
79330;SDS011;68797;49.782;19.054;2023-07-09T17:43:20;7.28;;;5.00;;
79330;SDS011;68797;49.782;19.054;2023-07-09T17:45:56;5.88;;;4.75;;
79330;SDS011;68797;49.782;19.054;2023-07-09T17:48:31;6.65;;;5.00;;
79330;SDS011;68797;49.782;19.054;2023-07-09T17:51:27;8.27;;;4.88;;
79330;SDS011;68797;49.782;19.054;2023-07-09T17:54:17;6.50;;;4.82;;
79330;SDS011;68797;49.782;19.054;2023-07-09T17:57:05;5.70;;;4.72;;
79330;SDS011;68797;49.782;19.054;2023-07-09T17:59:58;8.63;;;5.05;;
79330;SDS011;68797;49.782;19.054;2023-07-09T18:02:35;16.27;;;5.28;;
79330;SDS011;68797;49.782;19.054;2023-07-09T18:05:20;6.85;;;5.10;;
79330;SDS011;68797;49.782;19.054;2023-07-09T18:07:56;10.63;;;5.50;;
79330;SDS011;68797;49.782;19.054;2023-07-09T18:10:28;6.13;;;4.85;;
79330;SDS011;68797;49.782;19.054;2023-07-09T18:13:03;5.68;;;4.47;;
79330;SDS011;68797;49.782;19.054;2023-07-09T18:15:41;6.65;;;4.60;;
79330;SDS011;68797;49.782;19.054;2023-07-09T18:18:13;7.22;;;4.60;;
79330;SDS011;68797;49.782;19.054;2023-07-09T18:20:55;8.82;;;4.90;;
79330;SDS011;68797;49.782;19.054;2023-07-09T18:23:24;6.18;;;4.47;;
79330;SDS011;68797;49.782;19.054;2023-07-09T18:26:09;8.07;;;4.97;;
79330;SDS011;68797;49.782;19.054;2023-07-09T18:28:43;8.73;;;4.30;;
79330;SDS011;68797;49.782;19.054;2023-07-09T18:31:17;6.88;;;5.00;;
79330;SDS011;68797;49.782;19.054;2023-07-09T18:33:59;6.30;;;4.35;;
79330;SDS011;68797;49.782;19.054;2023-07-09T18:36:35;7.95;;;4.90;;
79330;SDS011;68797;49.782;19.054;2023-07-09T18:39:10;6.47;;;4.63;;
79330;SDS011;68797;49.782;19.054;2023-07-09T18:41:37;9.10;;;4.93;;
79330;SDS011;68797;49.782;19.054;2023-07-09T18:44:23;10.43;;;5.05;;
79330;SDS011;68797;49.782;19.054;2023-07-09T18:47:18;8.40;;;4.85;;
79330;SDS011;68797;49.782;19.054;2023-07-09T18:49:54;9.98;;;4.85;;
79330;SDS011;68797;49.782;19.054;2023-07-09T18:52:29;5.93;;;5.07;;
79330;SDS011;68797;49.782;19.054;2023-07-09T18:55:04;7.25;;;5.43;;
79330;SDS011;68797;49.782;19.054;2023-07-09T18:58:22;12.02;;;5.35;;
79330;SDS011;68797;49.782;19.054;2023-07-09T19:00:56;6.20;;;4.55;;
79330;SDS011;68797;49.782;19.054;2023-07-09T19:03:36;6.00;;;4.50;;
79330;SDS011;68797;49.782;19.054;2023-07-09T19:06:32;7.53;;;4.93;;
79330;SDS011;68797;49.782;19.054;2023-07-09T19:09:58;6.38;;;4.90;;
79330;SDS011;68797;49.782;19.054;2023-07-09T19:14:16;7.60;;;4.30;;